Time;durP1;ratioP1;P1;durP2;ratioP2;P2;SDS_P1;SDS_P2;PMS_P1;PMS_P2;Temp;Humidity;BMP_temperature;BMP_pressure;BME280_temperature;BME280_humidity;BME280_pressure;Samples;Min_cycle;Max_cycle;Signal;HPM_P1;HPM_P2
2021/06/29 00:00:34;;;;;;;5.32;4.10;;;17.10;99.90;;;;;;5036984;28;20032;-71
2021/06/29 00:03:02;;;;;;;4.20;3.58;;;17.10;99.90;;;;;;5055100;28;20026;-71
2021/06/29 00:05:29;;;;;;;7.05;3.83;;;17.00;99.90;;;;;;5054767;28;20028;-71
2021/06/29 00:07:55;;;;;;;6.53;4.05;;;17.00;99.90;;;;;;5036962;28;20048;-72
2021/06/29 00:10:22;;;;;;;6.95;4.15;;;16.90;99.90;;;;;;5054900;28;20428;-72
2021/06/29 00:12:48;;;;;;;5.25;3.78;;;16.90;99.90;;;;;;5054737;28;20052;-72
2021/06/29 00:15:14;;;;;;;5.20;4.20;;;16.90;99.90;;;;;;5054584;28;20470;-71
2021/06/29 00:17:39;;;;;;;4.22;3.72;;;16.90;99.90;;;;;;5054395;28;20358;-72
2021/06/29 00:20:06;;;;;;;7.82;4.60;;;16.90;99.90;;;;;;5054853;28;20428;-71
2021/06/29 00:22:31;;;;;;;6.90;3.75;;;17.00;99.90;;;;;;5055072;28;20025;-72
2021/06/29 00:24:57;;;;;;;4.88;4.00;;;17.00;99.90;;;;;;5054755;28;20127;-72
2021/06/29 00:27:22;;;;;;;6.75;4.03;;;16.90;99.90;;;;;;5054507;28;20071;-72
2021/06/29 00:29:48;;;;;;;6.53;4.30;;;17.00;99.90;;;;;;5054549;28;20035;-71
2021/06/29 00:32:13;;;;;;;4.03;3.55;;;17.00;99.90;;;;;;5054843;28;20063;-72
2021/06/29 00:34:39;;;;;;;7.90;4.18;;;17.00;99.90;;;;;;5054325;28;20473;-72
2021/06/29 00:37:05;;;;;;;7.47;4.38;;;17.00;99.90;;;;;;5038704;28;20132;-76
2021/06/29 00:39:30;;;;;;;5.43;3.97;;;16.90;99.90;;;;;;5040954;28;20111;-76
2021/06/29 00:41:56;;;;;;;6.13;4.38;;;16.90;99.90;;;;;;5028349;28;20025;-76
2021/06/29 00:44:23;;;;;;;7.60;4.63;;;16.90;99.90;;;;;;5027718;28;20037;-76
2021/06/29 00:46:50;;;;;;;6.13;4.38;;;16.90;99.90;;;;;;5046892;28;20024;-76
2021/06/29 00:49:16;;;;;;;6.03;4.35;;;17.00;99.90;;;;;;5018603;28;20075;-76
2021/06/29 00:51:42;;;;;;;5.10;3.90;;;17.00;99.90;;;;;;5041669;28;20063;-76
2021/06/29 00:54:09;;;;;;;4.40;3.90;;;17.00;99.90;;;;;;5027470;28;20029;-76
2021/06/29 00:56:37;;;;;;;6.03;4.13;;;17.00;99.90;;;;;;5027599;28;20121;-76
2021/06/29 00:59:03;;;;;;;5.75;4.00;;;17.00;99.90;;;;;;5027474;28;20029;-76
2021/06/29 01:01:29;;;;;;;5.95;4.03;;;16.90;99.90;;;;;;5034463;28;20055;-76
2021/06/29 01:03:55;;;;;;;4.35;3.80;;;16.90;99.90;;;;;;5041696;28;20100;-76
2021/06/29 01:06:20;;;;;;;4.97;3.95;;;16.90;99.90;;;;;;5038429;28;20457;-76
2021/06/29 01:08:46;;;;;;;5.45;4.13;;;16.90;99.90;;;;;;5033123;28;20068;-76
2021/06/29 01:11:14;;;;;;;5.80;4.05;;;16.90;99.90;;;;;;5031697;28;20095;-72
2021/06/29 01:13:42;;;;;;;7.32;4.20;;;16.90;99.90;;;;;;5034048;28;20084;-72
2021/06/29 01:16:09;;;;;;;5.57;4.53;;;16.90;99.90;;;;;;5034078;28;20021;-72
2021/06/29 01:18:40;;;;;;;5.07;4.05;;;16.90;99.90;;;;;;5033466;28;20049;-73
2021/06/29 01:21:14;;;;;;;5.30;4.50;;;16.90;99.90;;;;;;5033659;28;20155;-72
2021/06/29 01:23:42;;;;;;;6.57;4.53;;;16.90;99.90;;;;;;5033585;28;20060;-73
2021/06/29 01:26:21;;;;;;;7.13;4.60;;;16.90;99.90;;;;;;5015490;28;20446;-73
2021/06/29 01:29:08;;;;;;;5.75;3.83;;;16.90;99.90;;;;;;5033433;28;20024;-72
2021/06/29 01:31:35;;;;;;;5.13;4.38;;;16.90;99.90;;;;;;5033050;28;20033;-72
2021/06/29 01:34:02;;;;;;;5.60;3.65;;;16.90;99.90;;;;;;5033087;28;20049;-73
2021/06/29 01:36:36;;;;;;;6.53;3.90;;;16.90;99.90;;;;;;5033206;28;20017;-72
2021/06/29 01:39:10;;;;;;;7.90;4.78;;;16.90;99.90;;;;;;5033484;28;20079;-72
2021/06/29 01:41:36;;;;;;;6.70;4.78;;;16.90;99.90;;;;;;5033180;28;20540;-72
2021/06/29 01:44:09;;;;;;;4.72;3.97;;;16.90;99.90;;;;;;5015416;28;20027;-72
2021/06/29 01:46:38;;;;;;;4.97;3.95;;;16.90;99.90;;;;;;5033175;28;20021;-72
2021/06/29 01:49:04;;;;;;;6.90;4.38;;;16.90;99.90;;;;;;5033078;28;20025;-72
2021/06/29 01:51:30;;;;;;;4.78;4.03;;;16.90;99.90;;;;;;5032688;28;20030;-72
2021/06/29 01:53:55;;;;;;;6.22;4.18;;;16.90;99.90;;;;;;5015772;28;20075;-72
2021/06/29 01:56:35;;;;;;;4.65;3.83;;;17.00;99.90;;;;;;5033226;28;20026;-73
2021/06/29 01:59:12;;;;;;;4.72;4.18;;;17.00;99.90;;;;;;5032771;28;20030;-72
2021/06/29 02:01:38;;;;;;;4.72;3.92;;;17.00;99.90;;;;;;5032757;28;20052;-72
2021/06/29 02:04:05;;;;;;;6.75;4.10;;;17.00;99.90;;;;;;5033283;28;20344;-72
2021/06/29 02:06:30;;;;;;;5.00;4.15;;;17.00;99.90;;;;;;5032679;28;20121;-73
2021/06/29 02:08:56;;;;;;;7.20;4.30;;;17.00;99.90;;;;;;5033044;28;20084;-72
2021/06/29 02:11:22;;;;;;;5.85;4.10;;;17.00;99.90;;;;;;5014888;28;20575;-72
2021/06/29 02:13:47;;;;;;;4.82;4.03;;;17.10;99.90;;;;;;5033284;28;20336;-72
2021/06/29 02:16:13;;;;;;;5.93;4.57;;;17.10;99.90;;;;;;5014782;28;20112;-72
2021/06/29 02:18:39;;;;;;;7.95;4.05;;;17.00;99.90;;;;;;5032802;28;20045;-72
2021/06/29 02:21:08;;;;;;;5.85;4.18;;;17.10;99.90;;;;;;5032680;28;20033;-72
2021/06/29 02:23:34;;;;;;;5.22;4.20;;;17.00;99.90;;;;;;5037620;28;20028;-72
2021/06/29 02:26:00;;;;;;;5.53;4.90;;;17.00;99.90;;;;;;5052724;28;20108;-72
2021/06/29 02:28:26;;;;;;;5.53;4.07;;;17.00;99.90;;;;;;5052450;28;20024;-72
2021/06/29 02:30:52;;;;;;;5.15;4.00;;;17.00;99.90;;;;;;5052698;28;20017;-72
2021/06/29 02:33:17;;;;;;;6.30;4.80;;;17.00;99.90;;;;;;5052346;28;20036;-72
2021/06/29 02:35:43;;;;;;;6.25;4.38;;;16.90;99.90;;;;;;5052438;28;20025;-72
2021/06/29 02:38:09;;;;;;;7.78;3.85;;;16.90;99.90;;;;;;5052844;28;20060;-72
2021/06/29 02:40:34;;;;;;;5.75;4.20;;;16.90;99.90;;;;;;5052337;28;20028;-72
2021/06/29 02:43:00;;;;;;;5.72;4.13;;;16.90;99.90;;;;;;5052331;28;20032;-72
2021/06/29 02:45:26;;;;;;;5.97;3.65;;;16.90;99.90;;;;;;5052339;28;20422;-72
2021/06/29 02:47:53;;;;;;;5.18;4.28;;;16.90;99.90;;;;;;5052549;28;20036;-72
2021/06/29 02:50:19;;;;;;;5.30;4.00;;;17.00;99.90;;;;;;5052331;28;20028;-72
2021/06/29 02:52:45;;;;;;;8.63;3.83;;;17.10;99.90;;;;;;5052152;28;20073;-72
2021/06/29 02:55:13;;;;;;;5.85;4.03;;;17.10;99.90;;;;;;5052156;28;20020;-73
2021/06/29 02:57:39;;;;;;;7.10;3.90;;;17.20;99.90;;;;;;5052398;28;20154;-72
2021/06/29 03:00:07;;;;;;;4.82;3.95;;;17.20;99.90;;;;;;5052297;28;20033;-72
2021/06/29 03:02:33;;;;;;;4.32;3.92;;;17.30;99.90;;;;;;5036977;28;20159;-73
2021/06/29 03:04:59;;;;;;;6.30;3.95;;;17.30;99.90;;;;;;5056593;28;20060;-72
2021/06/29 03:07:24;;;;;;;6.45;4.28;;;17.20;99.90;;;;;;5055698;28;20065;-73
2021/06/29 03:09:50;;;;;;;5.93;4.13;;;17.20;99.90;;;;;;5055673;28;20079;-72
2021/06/29 03:12:15;;;;;;;7.38;4.43;;;17.10;99.90;;;;;;5056029;28;20025;-72
2021/06/29 03:14:41;;;;;;;7.10;4.15;;;17.10;99.90;;;;;;5055852;28;20425;-72
2021/06/29 03:17:08;;;;;;;6.03;4.43;;;17.10;99.90;;;;;;5055750;28;20092;-72
2021/06/29 03:19:34;;;;;;;5.72;4.30;;;17.00;99.90;;;;;;5055259;28;20086;-72
2021/06/29 03:22:01;;;;;;;8.82;4.88;;;17.00;99.90;;;;;;5055968;28;20033;-73
2021/06/29 03:24:27;;;;;;;10.45;4.65;;;16.90;99.90;;;;;;5037707;28;20029;-72
2021/06/29 03:26:53;;;;;;;5.10;4.47;;;17.00;99.90;;;;;;5055393;28;20049;-72
2021/06/29 03:29:19;;;;;;;5.18;4.13;;;16.90;99.90;;;;;;5055569;28;20079;-72
2021/06/29 03:31:45;;;;;;;5.25;4.00;;;16.90;99.90;;;;;;5037303;28;20104;-72
2021/06/29 03:34:11;;;;;;;5.63;4.05;;;16.90;99.90;;;;;;5037242;28;20056;-72
2021/06/29 03:36:37;;;;;;;4.38;3.97;;;16.90;99.90;;;;;;5055396;28;20091;-72
2021/06/29 03:39:05;;;;;;;7.57;4.53;;;16.90;99.90;;;;;;5055079;28;20021;-72
2021/06/29 03:41:31;;;;;;;6.70;3.97;;;16.90;99.90;;;;;;5036937;28;20043;-72
2021/06/29 03:43:56;;;;;;;6.63;3.97;;;16.90;99.90;;;;;;5055282;28;20433;-72
2021/06/29 03:46:22;;;;;;;4.00;3.60;;;16.90;99.90;;;;;;5055345;28;20362;-72
2021/06/29 03:48:47;;;;;;;6.18;3.97;;;16.90;99.90;;;;;;5054877;28;20037;-72
2021/06/29 03:51:13;;;;;;;4.78;3.53;;;16.90;99.90;;;;;;5054949;28;20064;-72
2021/06/29 03:53:39;;;;;;;4.43;3.90;;;16.90;99.90;;;;;;5055075;28;20021;-72
2021/06/29 03:56:05;;;;;;;4.53;4.03;;;16.90;99.90;;;;;;5054917;28;20021;-72
2021/06/29 03:58:30;;;;;;;7.05;4.90;;;16.90;99.90;;;;;;5036774;28;20059;-72
2021/06/29 04:00:56;;;;;;;6.68;4.10;;;16.90;99.90;;;;;;5036774;28;20064;-72
2021/06/29 04:03:22;;;;;;;5.13;3.97;;;16.90;99.90;;;;;;5054611;28;20037;-72
2021/06/29 04:05:47;;;;;;;5.28;3.90;;;16.80;99.90;;;;;;5054801;28;20036;-72
2021/06/29 04:08:13;;;;;;;5.65;4.05;;;16.80;99.90;;;;;;5055005;28;20032;-72
2021/06/29 04:10:39;;;;;;;7.13;4.28;;;16.80;99.90;;;;;;5054772;28;20029;-72
2021/06/29 04:13:04;;;;;;;4.57;3.92;;;16.90;99.90;;;;;;5035230;28;20021;-72
2021/06/29 04:15:30;;;;;;;4.53;3.72;;;16.90;99.90;;;;;;5053186;28;20025;-72
2021/06/29 04:17:56;;;;;;;8.27;3.72;;;16.90;99.90;;;;;;5038636;28;20045;-72
2021/06/29 04:20:21;;;;;;;5.60;3.85;;;16.90;99.90;;;;;;5048864;28;20025;-72
2021/06/29 04:22:47;;;;;;;6.55;3.95;;;16.90;99.90;;;;;;5040049;28;20033;-71
2021/06/29 04:25:12;;;;;;;4.72;3.40;;;17.00;99.90;;;;;;5041492;28;20427;-72
2021/06/29 04:27:38;;;;;;;11.93;3.90;;;17.00;99.90;;;;;;5046594;28;20156;-71
2021/06/29 04:30:06;;;;;;;4.95;3.35;;;17.00;99.90;;;;;;5042304;28;20573;-71
2021/06/29 04:32:32;;;;;;;5.03;3.22;;;17.00;99.90;;;;;;5043404;28;20132;-71
2021/06/29 04:34:57;;;;;;;7.38;3.33;;;17.00;99.90;;;;;;5044917;28;20028;-72
2021/06/29 04:37:23;;;;;;;3.70;3.30;;;17.00;99.90;;;;;;5045733;28;20119;-72
2021/06/29 04:39:49;;;;;;;5.10;3.30;;;17.00;99.90;;;;;;5045873;28;20024;-72
2021/06/29 04:42:14;;;;;;;4.28;3.10;;;17.10;99.90;;;;;;5042865;28;20118;-72
2021/06/29 04:44:40;;;;;;;5.97;2.75;;;17.10;99.90;;;;;;5027324;28;20723;-71
2021/06/29 04:47:07;;;;;;;3.85;3.13;;;17.20;99.90;;;;;;5043335;28;20028;-71
2021/06/29 04:49:33;;;;;;;5.13;3.30;;;17.20;99.90;;;;;;5044227;28;20059;-72
2021/06/29 04:51:59;;;;;;;4.85;3.10;;;17.30;99.90;;;;;;5046159;28;20067;-72
2021/06/29 04:54:24;;;;;;;3.90;2.85;;;17.30;99.90;;;;;;5043566;28;20020;-71
2021/06/29 04:56:50;;;;;;;4.38;2.85;;;17.40;99.90;;;;;;5044337;28;20377;-72
2021/06/29 04:59:16;;;;;;;4.40;2.65;;;17.40;99.90;;;;;;5037673;28;20031;-71
2021/06/29 05:01:42;;;;;;;5.22;2.97;;;17.50;99.90;;;;;;5044047;28;20036;-71
2021/06/29 05:04:08;;;;;;;6.65;3.70;;;17.50;99.90;;;;;;5041149;28;20108;-72
2021/06/29 05:06:33;;;;;;;4.82;3.38;;;17.60;99.90;;;;;;5046202;28;20029;-69
2021/06/29 05:08:59;;;;;;;5.13;2.85;;;17.70;99.90;;;;;;5046666;28;20025;-69
2021/06/29 05:11:25;;;;;;;4.85;3.15;;;17.70;99.90;;;;;;5044001;28;20033;-69
2021/06/29 05:13:50;;;;;;;5.35;2.38;;;17.60;99.90;;;;;;5046574;28;20109;-69
2021/06/29 05:16:16;;;;;;;4.00;2.88;;;17.70;99.90;;;;;;5044073;28;20496;-69
2021/06/29 05:18:42;;;;;;;5.93;2.65;;;17.70;99.90;;;;;;5049067;28;20481;-69
2021/06/29 05:21:07;;;;;;;4.00;3.00;;;17.60;99.90;;;;;;5044618;28;20026;-69
2021/06/29 05:23:33;;;;;;;6.28;2.75;;;17.70;99.90;;;;;;5048674;28;20028;-69
2021/06/29 05:25:58;;;;;;;3.80;2.38;;;17.60;99.90;;;;;;5049627;28;20025;-68
2021/06/29 05:28:24;;;;;;;3.25;2.47;;;17.70;99.90;;;;;;5049320;28;20040;-71
2021/06/29 05:30:50;;;;;;;4.72;2.72;;;17.60;99.90;;;;;;5040998;28;20429;-70
2021/06/29 05:33:16;;;;;;;5.07;2.45;;;17.60;99.90;;;;;;5039971;28;20710;-71
2021/06/29 05:35:42;;;;;;;4.97;3.05;;;17.60;99.90;;;;;;5037131;28;20088;-71
2021/06/29 05:38:08;;;;;;;3.03;2.60;;;17.60;99.90;;;;;;5035458;28;20104;-70
2021/06/29 05:40:35;;;;;;;4.00;2.67;;;17.60;99.90;;;;;;5048845;28;20048;-70
2021/06/29 05:43:00;;;;;;;4.35;2.53;;;17.60;99.90;;;;;;5039426;28;20047;-69
2021/06/29 05:45:27;;;;;;;3.22;2.75;;;17.60;99.90;;;;;;5034223;28;20029;-73
2021/06/29 05:47:53;;;;;;;4.47;2.70;;;17.60;99.90;;;;;;5045198;28;20432;-68
2021/06/29 05:50:19;;;;;;;3.33;2.60;;;17.60;99.90;;;;;;5040092;28;20032;-73
2021/06/29 05:52:46;;;;;;;5.35;3.10;;;17.60;99.90;;;;;;5044816;28;20075;-73
2021/06/29 05:55:12;;;;;;;5.90;3.10;;;17.60;99.90;;;;;;5047100;28;20104;-72
2021/06/29 05:57:38;;;;;;;6.15;2.83;;;17.60;99.90;;;;;;5051004;28;20025;-67
2021/06/29 06:00:06;;;;;;;6.72;3.42;;;17.60;99.90;;;;;;5051225;28;20378;-68
2021/06/29 06:02:32;;;;;;;4.90;3.00;;;17.60;99.90;;;;;;5050510;28;20020;-68
2021/06/29 06:04:58;;;;;;;5.53;3.33;;;17.60;99.90;;;;;;5049438;28;20033;-68
2021/06/29 06:07:23;;;;;;;5.25;2.90;;;17.60;99.90;;;;;;5049096;28;20056;-68
2021/06/29 06:09:49;;;;;;;5.88;3.08;;;17.60;99.90;;;;;;5050767;28;20033;-68
2021/06/29 06:12:14;;;;;;;3.72;2.50;;;17.80;99.90;;;;;;5050664;28;20048;-72
2021/06/29 06:14:40;;;;;;;5.38;2.60;;;17.80;99.90;;;;;;5052649;28;20506;-73
2021/06/29 06:17:05;;;;;;;3.20;2.53;;;17.80;99.90;;;;;;5052656;28;20025;-72
2021/06/29 06:19:31;;;;;;;5.72;3.20;;;17.80;99.90;;;;;;5052009;28;20049;-73
2021/06/29 06:21:56;;;;;;;4.75;2.90;;;17.80;99.90;;;;;;5047840;28;20474;-72
2021/06/29 06:24:22;;;;;;;4.72;2.70;;;17.90;99.90;;;;;;5046031;28;20021;-73
2021/06/29 06:26:49;;;;;;;5.72;3.38;;;17.80;99.90;;;;;;5043102;28;20036;-73
2021/06/29 06:29:15;;;;;;;5.03;3.47;;;17.80;99.90;;;;;;5049576;28;20097;-76
2021/06/29 06:31:40;;;;;;;7.18;2.35;;;17.70;99.90;;;;;;5040491;28;20044;-72
2021/06/29 06:34:06;;;;;;;3.95;2.70;;;17.70;99.90;;;;;;5046645;28;20044;-75
2021/06/29 06:36:32;;;;;;;5.57;2.78;;;17.70;99.90;;;;;;5039690;28;20044;-76
2021/06/29 06:38:58;;;;;;;5.72;2.70;;;17.80;99.90;;;;;;5037249;28;20032;-76
2021/06/29 06:41:23;;;;;;;4.07;2.90;;;17.80;99.90;;;;;;5033582;28;20036;-76
2021/06/29 06:43:49;;;;;;;4.53;2.58;;;17.90;99.90;;;;;;5036724;28;20427;-76
2021/06/29 06:46:15;;;;;;;4.93;2.72;;;17.80;99.90;;;;;;5037987;28;20033;-76
2021/06/29 06:48:42;;;;;;;4.75;2.60;;;17.80;99.90;;;;;;5037146;28;20112;-76
2021/06/29 06:51:08;;;;;;;5.72;2.47;;;17.80;99.90;;;;;;5033157;28;20029;-77
2021/06/29 06:53:33;;;;;;;3.63;2.70;;;17.80;99.90;;;;;;5042074;28;20587;-74
2021/06/29 06:55:59;;;;;;;3.28;2.35;;;17.80;99.90;;;;;;5056133;28;20051;-74
2021/06/29 06:58:25;;;;;;;4.35;2.72;;;17.80;99.90;;;;;;5056034;28;20029;-74
2021/06/29 07:00:52;;;;;;;4.03;2.60;;;17.90;99.90;;;;;;5038104;28;20029;-74
2021/06/29 07:03:17;;;;;;;3.15;2.47;;;17.90;99.90;;;;;;5049441;28;20492;-75
2021/06/29 07:05:43;;;;;;;6.07;2.70;;;17.90;99.90;;;;;;5037581;28;20030;-76
2021/06/29 07:08:08;;;;;;;2.72;2.05;;;18.10;99.90;;;;;;5021811;28;20028;-76
2021/06/29 07:10:35;;;;;;;5.90;2.33;;;18.40;99.90;;;;;;5036240;28;20045;-74
2021/06/29 07:13:02;;;;;;;5.25;1.95;;;18.60;99.90;;;;;;5036992;28;20037;-76
2021/06/29 07:15:29;;;;;;;2.50;1.98;;;18.80;99.90;;;;;;5039653;28;20040;-76
2021/06/29 07:17:56;;;;;;;2.40;1.88;;;19.00;99.90;;;;;;5016277;28;20059;-75
2021/06/29 07:20:23;;;;;;;3.42;2.13;;;19.30;99.90;;;;;;5030697;28;20038;-76
2021/06/29 07:22:48;;;;;;;4.20;2.33;;;19.40;99.90;;;;;;5041925;28;20033;-76
2021/06/29 07:25:17;;;;;;;3.30;1.92;;;19.50;99.90;;;;;;5030274;28;20038;-76
2021/06/29 07:27:43;;;;;;;2.95;2.25;;;19.80;99.90;;;;;;5037470;28;20469;-76
2021/06/29 07:30:10;;;;;;;2.75;1.70;;;19.90;99.90;;;;;;5015433;28;20041;-76
2021/06/29 07:32:36;;;;;;;1.92;1.70;;;20.10;99.90;;;;;;5034656;28;20048;-77
2021/06/29 07:35:02;;;;;;;3.50;1.73;;;20.00;99.90;;;;;;5039681;28;20037;-76
2021/06/29 07:37:27;;;;;;;3.53;1.65;;;20.10;99.90;;;;;;5030096;28;20034;-76
2021/06/29 07:39:53;;;;;;;2.47;1.45;;;20.10;99.90;;;;;;5046759;28;20033;-74
2021/06/29 07:42:18;;;;;;;2.10;1.42;;;20.40;99.90;;;;;;5049204;28;20458;-74
2021/06/29 07:44:44;;;;;;;3.15;1.50;;;20.40;99.90;;;;;;5054894;28;20025;-73
2021/06/29 07:47:10;;;;;;;2.42;1.38;;;20.40;99.90;;;;;;5045913;28;20036;-73
2021/06/29 07:49:35;;;;;;;4.72;1.63;;;20.50;99.90;;;;;;5036573;28;20760;-76
2021/06/29 07:52:01;;;;;;;2.83;1.30;;;20.70;99.90;;;;;;5038042;28;20755;-76
2021/06/29 07:54:27;;;;;;;2.05;1.40;;;20.90;99.90;;;;;;5040845;28;20456;-76
2021/06/29 07:56:53;;;;;;;3.10;1.58;;;21.00;99.90;;;;;;5035714;28;20065;-76
2021/06/29 07:59:18;;;;;;;2.35;1.35;;;21.00;99.90;;;;;;5036253;28;20391;-76
2021/06/29 08:01:44;;;;;;;2.60;1.40;;;21.00;99.90;;;;;;5033554;28;20044;-76
2021/06/29 08:04:09;;;;;;;4.55;1.40;;;21.00;99.90;;;;;;5035154;28;20202;-75
2021/06/29 08:06:35;;;;;;;4.78;1.65;;;21.00;99.90;;;;;;5038840;28;20049;-76
2021/06/29 08:09:01;;;;;;;3.08;1.67;;;21.10;99.90;;;;;;5036982;28;20047;-76
2021/06/29 08:11:26;;;;;;;3.78;1.67;;;21.20;99.90;;;;;;5043798;28;20040;-72
2021/06/29 08:13:53;;;;;;;2.53;1.35;;;21.20;99.90;;;;;;5045306;28;20136;-77
2021/06/29 08:16:18;;;;;;;3.80;1.40;;;21.20;99.90;;;;;;5047350;28;20100;-72
2021/06/29 08:18:44;;;;;;;3.03;1.50;;;21.30;99.90;;;;;;5055296;28;20515;-72
2021/06/29 08:21:10;;;;;;;7.88;1.63;;;21.30;99.90;;;;;;5048585;28;20021;-76
2021/06/29 08:23:35;;;;;;;3.45;1.33;;;21.30;99.90;;;;;;5034994;28;20124;-76
2021/06/29 08:26:01;;;;;;;2.22;1.40;;;21.40;99.90;;;;;;5033154;28;20381;-73
2021/06/29 08:28:27;;;;;;;2.30;1.40;;;21.40;99.90;;;;;;5054322;28;20028;-73
2021/06/29 08:30:53;;;;;;;3.72;1.45;;;21.60;99.90;;;;;;5054676;28;20029;-73
2021/06/29 08:33:21;;;;;;;4.00;1.33;;;21.60;99.90;;;;;;5054144;28;20025;-73
2021/06/29 08:35:48;;;;;;;3.40;1.40;;;21.60;99.90;;;;;;5054518;28;20013;-73
2021/06/29 08:38:16;;;;;;;2.55;1.35;;;21.80;99.90;;;;;;5054639;28;20032;-73
2021/06/29 08:40:42;;;;;;;1.73;1.25;;;21.90;99.90;;;;;;5054116;28;20021;-73
2021/06/29 08:43:09;;;;;;;3.47;1.23;;;21.90;99.90;;;;;;5031055;28;20440;-76
2021/06/29 08:45:34;;;;;;;4.80;2.47;;;22.10;99.90;;;;;;5033533;28;20021;-76
2021/06/29 08:48:01;;;;;;;4.38;1.88;;;22.10;99.90;;;;;;5053088;28;20032;-74
2021/06/29 08:50:30;;;;;;;5.25;1.27;;;22.00;99.90;;;;;;5036315;28;20098;-73
2021/06/29 08:53:04;;;;;;;2.35;1.23;;;22.20;99.90;;;;;;5035848;28;20029;-73
2021/06/29 08:55:35;;;;;;;3.27;1.20;;;22.40;99.90;;;;;;5053967;28;20017;-73
2021/06/29 08:58:01;;;;;;;2.97;1.40;;;22.50;99.90;;;;;;5051709;28;20029;-76
2021/06/29 09:00:27;;;;;;;2.65;1.33;;;22.80;99.90;;;;;;5035675;28;20480;-72
2021/06/29 09:02:53;;;;;;;6.55;1.75;;;23.10;99.90;;;;;;5034120;28;20064;-71
2021/06/29 09:05:26;;;;;;;2.58;1.30;;;23.40;99.90;;;;;;5033761;28;20026;-71
2021/06/29 09:08:06;;;;;;;2.60;1.30;;;23.50;99.90;;;;;;5040506;28;20035;-73
2021/06/29 09:10:34;;;;;;;2.63;1.20;;;23.60;99.90;;;;;;5053879;28;20025;-73
2021/06/29 09:13:01;;;;;;;3.05;1.48;;;23.60;99.90;;;;;;5053825;28;20021;-73
2021/06/29 09:15:35;;;;;;;2.20;1.15;;;23.70;99.90;;;;;;5053620;28;20017;-73
2021/06/29 09:18:08;;;;;;;3.65;1.20;;;23.60;99.90;;;;;;5053573;28;20081;-73
2021/06/29 09:20:43;;;;;;;2.80;1.10;;;23.50;99.90;;;;;;5053693;28;20060;-73
2021/06/29 09:23:26;;;;;;;3.25;1.23;;;23.40;99.90;;;;;;5046016;28;20086;-77
2021/06/29 09:26:01;;;;;;;3.10;1.20;;;23.40;99.90;;;;;;5038455;28;20372;-72
2021/06/29 09:28:34;;;;;;;3.75;1.42;;;23.50;99.90;;;;;;5033852;28;20029;-72
2021/06/29 09:31:06;;;;;;;2.10;1.20;;;23.50;99.90;;;;;;5035751;28;20048;-72
2021/06/29 09:33:43;;;;;;;2.20;1.30;;;23.40;99.90;;;;;;5036122;28;20037;-72
2021/06/29 09:36:13;;;;;;;3.10;1.17;;;23.50;99.90;;;;;;5053140;28;20017;-72
2021/06/29 09:38:40;;;;;;;5.78;1.30;;;23.60;99.90;;;;;;5041514;28;20044;-72
2021/06/29 09:41:18;;;;;;;2.42;1.45;;;23.60;99.90;;;;;;5047950;28;20028;-77
2021/06/29 09:43:52;;;;;;;3.35;1.17;;;23.80;99.90;;;;;;5046241;28;20033;-73
2021/06/29 09:46:20;;;;;;;2.30;1.10;;;24.00;99.90;;;;;;5048475;28;20045;-77
2021/06/29 09:48:52;;;;;;;3.25;1.20;;;24.10;99.90;;;;;;5031320;28;20033;-76
2021/06/29 09:51:20;;;;;;;3.30;1.35;;;24.20;99.90;;;;;;5030740;28;20055;-76
2021/06/29 09:53:50;;;;;;;3.53;1.35;;;24.40;99.90;;;;;;5036556;28;20064;-76
2021/06/29 09:56:23;;;;;;;3.45;1.50;;;24.50;99.90;;;;;;5033512;28;20036;-76
2021/06/29 09:58:52;;;;;;;2.03;1.13;;;24.70;99.90;;;;;;5016820;28;20040;-76
2021/06/29 10:01:20;;;;;;;2.03;1.20;;;25.00;99.90;;;;;;5023209;28;20680;-72
2021/06/29 10:03:51;;;;;;;2.10;1.30;;;25.10;99.90;;;;;;5039091;28;20040;-72
2021/06/29 10:06:17;;;;;;;4.18;1.23;;;25.30;99.90;;;;;;5033943;28;20101;-72
2021/06/29 10:08:45;;;;;;;2.13;1.38;;;25.50;99.90;;;;;;5038715;28;20029;-72
2021/06/29 10:11:33;;;;;;;2.67;1.15;;;25.80;99.90;;;;;;5042630;28;20052;-72
2021/06/29 10:14:04;;;;;;;3.17;1.17;;;26.10;99.90;;;;;;5031214;28;20029;-72
2021/06/29 10:16:44;;;;;;;2.20;1.00;;;26.20;99.90;;;;;;5032021;28;20041;-74
2021/06/29 10:21:46;;;;;;;4.07;1.00;;;26.70;99.90;;;;;;5033661;28;20112;-76
2021/06/29 10:24:15;;;;;;;3.72;1.05;;;26.90;99.90;;;;;;5030462;28;20029;-76
2021/06/29 10:26:42;;;;;;;3.28;1.08;;;26.90;99.90;;;;;;5036828;28;20021;-77
2021/06/29 10:29:10;;;;;;;3.15;1.10;;;26.80;99.90;;;;;;5035264;28;20116;-74
2021/06/29 10:31:45;;;;;;;2.05;1.20;;;27.00;99.90;;;;;;5033184;28;20029;-75
2021/06/29 10:34:13;;;;;;;3.00;1.00;;;27.10;99.90;;;;;;5032661;28;20468;-78
2021/06/29 10:36:42;;;;;;;4.28;1.20;;;27.40;99.90;;;;;;5041225;28;20108;-77
2021/06/29 10:39:10;;;;;;;2.92;1.00;;;27.40;99.90;;;;;;5022824;28;20786;-78
2021/06/29 10:42:16;;;;;;;4.75;1.55;;;27.40;99.90;;;;;;5040387;28;20040;-78
2021/06/29 10:44:45;;;;;;;4.18;1.42;;;27.50;99.90;;;;;;5031980;28;20538;-78
2021/06/29 10:47:18;;;;;;;2.67;0.98;;;27.40;99.90;;;;;;5032807;28;20029;-78
2021/06/29 10:49:48;;;;;;;2.45;0.90;;;27.60;99.90;;;;;;5042808;28;20562;-74
2021/06/29 10:52:22;;;;;;;1.42;1.05;;;27.50;99.90;;;;;;5044795;28;20029;-74
2021/06/29 10:54:49;;;;;;;2.53;1.73;;;27.60;99.90;;;;;;5037452;28;20036;-74
2021/06/29 10:57:17;;;;;;;2.05;0.90;;;27.60;99.90;;;;;;5047147;28;20059;-74
2021/06/29 10:59:52;;;;;;;2.20;1.08;;;27.80;99.20;;;;;;5048723;28;20028;-74
2021/06/29 11:02:32;;;;;;;3.05;1.08;;;27.80;99.10;;;;;;5049699;28;20052;-74
2021/06/29 11:05:00;;;;;;;1.10;0.90;;;27.90;98.60;;;;;;5046435;28;20488;-74
2021/06/29 11:07:25;;;;;;;1.20;0.90;;;27.70;98.60;;;;;;5053397;28;20081;-74
2021/06/29 11:10:03;;;;;;;1.45;0.90;;;27.90;99.60;;;;;;5049142;28;20100;-74
2021/06/29 11:12:34;;;;;;;1.70;1.02;;;28.00;99.50;;;;;;5052477;28;20401;-74
2021/06/29 11:15:03;;;;;;;1.80;0.95;;;28.10;98.10;;;;;;5036321;28;20040;-74
2021/06/29 11:17:50;;;;;;;10.52;1.20;;;28.10;99.30;;;;;;5040736;28;20021;-75
2021/06/29 11:20:43;;;;;;;4.95;0.90;;;28.00;98.60;;;;;;5029469;28;20033;-74
2021/06/29 11:23:38;;;;;;;3.28;1.15;;;28.10;98.80;;;;;;5038377;28;20032;-74
2021/06/29 11:26:12;;;;;;;2.92;1.25;;;28.30;99.60;;;;;;5030591;28;20052;-74
2021/06/29 11:28:46;;;;;;;0.98;0.80;;;28.20;99.90;;;;;;5051000;28;20436;-73
2021/06/29 11:31:26;;;;;;;1.45;1.00;;;28.30;97.80;;;;;;5047393;28;20044;-74
2021/06/29 11:34:08;;;;;;;2.25;0.90;;;28.30;96.90;;;;;;5017828;28;20478;-74
2021/06/29 11:36:36;;;;;;;1.48;1.02;;;28.10;99.90;;;;;;5035728;28;20021;-74
2021/06/29 11:39:17;;;;;;;1.65;1.33;;;28.20;99.90;;;;;;5038502;28;20426;-73
2021/06/29 11:42:10;;;;;;;4.03;1.17;;;28.00;99.80;;;;;;5044163;28;20025;-73
2021/06/29 11:44:42;;;;;;;4.00;2.33;;;28.00;99.20;;;;;;5045859;28;20049;-74
2021/06/29 11:47:13;;;;;;;3.17;1.20;;;28.00;99.90;;;;;;5035605;28;20026;-76
2021/06/29 11:49:54;;;;;;;3.60;1.10;;;28.20;99.90;;;;;;5035726;28;20167;-75
2021/06/29 11:52:26;;;;;;;3.28;1.30;;;28.40;99.70;;;;;;5035355;28;20033;-75
2021/06/29 11:55:07;;;;;;;2.22;1.42;;;28.20;99.90;;;;;;5035664;28;20029;-76
2021/06/29 11:57:41;;;;;;;3.22;1.27;;;28.10;99.90;;;;;;5053838;28;20103;-76
2021/06/29 12:00:38;;;;;;;1.80;1.20;;;28.10;99.90;;;;;;5055078;28;20481;-74
2021/06/29 12:03:07;;;;;;;3.40;1.02;;;28.00;99.90;;;;;;5043181;28;20040;-76
2021/06/29 12:05:36;;;;;;;2.75;1.10;;;27.90;98.50;;;;;;5054211;28;20066;-73
2021/06/29 12:08:10;;;;;;;2.30;1.05;;;28.00;99.90;;;;;;5055235;28;20028;-73
2021/06/29 12:10:46;;;;;;;2.95;1.15;;;28.30;99.50;;;;;;5055236;28;20025;-73
2021/06/29 12:13:14;;;;;;;2.78;1.10;;;28.40;99.90;;;;;;5054826;28;20036;-73
2021/06/29 12:15:45;;;;;;;2.70;1.25;;;28.70;99.90;;;;;;5055122;28;20029;-73
2021/06/29 12:18:16;;;;;;;3.38;1.10;;;28.80;99.90;;;;;;5054927;28;20049;-73
2021/06/29 12:20:47;;;;;;;1.98;1.30;;;28.80;99.90;;;;;;5055126;28;20362;-73
2021/06/29 12:23:15;;;;;;;3.88;1.30;;;28.70;99.70;;;;;;5055091;28;20142;-73
2021/06/29 12:25:44;;;;;;;1.70;1.10;;;28.50;98.50;;;;;;5055080;28;20040;-74
2021/06/29 12:28:15;;;;;;;1.95;1.13;;;28.50;98.80;;;;;;5054375;28;20033;-74
2021/06/29 12:30:46;;;;;;;3.15;1.90;;;28.40;99.90;;;;;;5054929;28;20028;-74
2021/06/29 12:33:17;;;;;;;2.47;1.35;;;28.20;99.90;;;;;;5054566;28;20377;-73
2021/06/29 12:35:50;;;;;;;2.33;1.25;;;28.50;99.90;;;;;;5054309;28;20075;-74
2021/06/29 12:38:19;;;;;;;2.50;1.25;;;28.30;98.80;;;;;;5055141;28;20021;-73
2021/06/29 12:40:52;;;;;;;2.53;1.23;;;28.40;99.90;;;;;;5054749;28;20021;-73
2021/06/29 12:43:39;;;;;;;5.18;1.30;;;28.10;99.50;;;;;;5054438;28;20109;-73
2021/06/29 12:46:13;;;;;;;2.47;1.20;;;28.10;99.90;;;;;;5039256;28;20025;-76
2021/06/29 12:48:39;;;;;;;2.35;1.02;;;28.00;99.90;;;;;;5040913;28;20167;-77
2021/06/29 12:51:05;;;;;;;2.10;0.98;;;27.90;99.90;;;;;;5037710;28;20128;-77
2021/06/29 12:53:32;;;;;;;1.90;1.30;;;27.80;99.30;;;;;;5043309;28;20056;-78